Terminal Aerodrome Forecast
Issued by NWS

Home | Current Version | Previous Version | Text Only | Print | Product List | Glossary On
Versions: 1 2 3 4 5 6 7 8 9 10 11 12 13 14
793
FTPA31 PHFO 062334
TAFHKO
TAF
PHKO 062334Z 0700/0724 21010KT P6SM SCT050
     FM070400 20008KT P6SM BKN050
     FM071300 01012KT P6SM VCSH SCT025 BKN050
     FM071900 02022G30KT P6SM SCT050
      AMD NOT SKED=

USA.gov is the U.S. government's official web portal to all federal, state and local government web resources and services.